»·PEaware :: N701GT KSAN-KMRY

N701GT :: KSAN-KMRY

FLIGHT INFORMATION

Flight Status: Arrived
Operator: Privately registered:
United States
More flights under this callsign
Pilot: Anonymous 17564 (17564)
Aircraft: BEECH AIRCRAFT SUPER KING AIR COMMUTER
(BE20)
More flights by this aircraft type
Origin: KSAN San Diego Intl-Lindbergh
United States
Destination: KMRY Monterey Peninsula
United States
More flights between these airports :: More routes between these airports
Route: PADRZ2 IKAYE TESEA SCTRR WIGGL
File this flight plan on PilotEdge
Remarks:
Altitude:
(Current/Filed)
26,000ft
Speed:
(Current/Filed)
300kts
Departed: 24-Aug-18 02:08 PM
Arrived: 24-Aug-18 03:25 PM
Distance/Time
Traveled:
326nm/1:17
Distance/Time
To Go:
Arrived

Flight Plot

Page will automatically refresh every two minutes.


Map Options




Map Legend


Flown Route
Filed Route
Departure Airport
Arrival Airport
Navaid (VOR, NDB)
Fix

Horizontal Profiles

Position Reports

Time Latitude Longitude Heading Altitude Ground
Speed
24-Aug-18 13:50 32.734570 -117.179520 14 19ft 0kts
24-Aug-18 13:51 32.734570 -117.179520 14 19ft 0kts
24-Aug-18 13:52 32.734570 -117.179520 14 19ft 0kts
24-Aug-18 13:53 32.734571 -117.179520 14 19ft 0kts
24-Aug-18 13:54 32.734575 -117.179518 14 19ft 0kts
24-Aug-18 13:55 32.734576 -117.179518 14 19ft 0kts
24-Aug-18 13:56 32.734576 -117.179518 14 19ft 0kts
24-Aug-18 13:57 32.734576 -117.179518 14 19ft 0kts
24-Aug-18 13:58 32.734576 -117.179518 14 19ft 0kts
24-Aug-18 13:59 32.734577 -117.179518 14 19ft 0kts
24-Aug-18 14:00 32.734578 -117.179517 14 19ft 0kts
24-Aug-18 14:01 32.734579 -117.179517 14 19ft 0kts
24-Aug-18 14:02 32.734580 -117.179517 14 19ft 0kts
24-Aug-18 14:03 32.733990 -117.179433 198 19ft 0kts
24-Aug-18 14:04 32.732624 -117.179788 179 19ft 10kts
24-Aug-18 14:05 32.731109 -117.175571 161 19ft 0kts
24-Aug-18 14:06 32.731109 -117.175571 161 19ft 0kts
24-Aug-18 14:07 32.731109 -117.175571 161 19ft 0kts
24-Aug-18 14:08 32.730647 -117.177884 283 19ft 34kts
24-Aug-18 14:09 32.740535 -117.212647 286 1210ft 132kts
24-Aug-18 14:10 32.763554 -117.260067 307 3086ft 187kts
24-Aug-18 14:11 32.795398 -117.311761 304 4993ft 197kts
24-Aug-18 14:12 32.828658 -117.363916 306 6893ft 197kts
24-Aug-18 14:13 32.859980 -117.412440 306 8668ft 197kts
24-Aug-18 14:14 32.893302 -117.464183 305 10560ft 197kts
24-Aug-18 14:15 32.926638 -117.515968 306 12458ft 196kts
24-Aug-18 14:16 32.960180 -117.568459 306 13968ft 215kts
24-Aug-18 14:17 32.998633 -117.628208 306 14607ft 221kts
24-Aug-18 14:18 33.027498 -117.673339 306 15790ft 218kts
24-Aug-18 14:19 33.066704 -117.732015 314 17303ft 232kts
24-Aug-18 14:20 33.115865 -117.783237 319 18807ft 236kts
24-Aug-18 14:21 33.166129 -117.833995 318 20304ft 238kts
24-Aug-18 14:22 33.215277 -117.887030 313 21800ft 239kts
24-Aug-18 14:23 33.262184 -117.943598 312 23270ft 240kts
24-Aug-18 14:24 33.310550 -118.001633 312 24493ft 250kts
24-Aug-18 14:25 33.360165 -118.061017 311 25692ft 255kts
24-Aug-18 14:26 33.412936 -118.124329 311 26061ft 283kts
24-Aug-18 14:27 33.470577 -118.193396 311 26050ft 300kts
24-Aug-18 14:28 33.530441 -118.265216 311 26050ft 306kts
24-Aug-18 14:29 33.589596 -118.336395 311 26042ft 308kts
24-Aug-18 14:30 33.650132 -118.409441 311 26032ft 308kts
24-Aug-18 14:31 33.709944 -118.481767 311 26024ft 302kts
24-Aug-18 14:32 33.768283 -118.552526 311 26026ft 301kts
24-Aug-18 14:33 33.827416 -118.624402 311 26024ft 301kts
24-Aug-18 14:34 33.886213 -118.695993 311 26025ft 301kts
24-Aug-18 14:35 33.945135 -118.767893 311 26029ft 301kts
24-Aug-18 14:36 34.003911 -118.839768 311 26031ft 301kts
24-Aug-18 14:37 34.061408 -118.910157 310 26026ft 299kts
24-Aug-18 14:38 34.119425 -118.981356 310 26023ft 299kts
24-Aug-18 14:39 34.177973 -119.052209 311 26023ft 299kts
24-Aug-18 14:40 34.237052 -119.122556 311 26022ft 298kts
24-Aug-18 14:41 34.296235 -119.193181 311 26028ft 298kts
24-Aug-18 14:42 34.355170 -119.263679 311 26038ft 298kts
24-Aug-18 14:43 34.414267 -119.334537 310 26044ft 298kts
24-Aug-18 14:44 34.473074 -119.405207 310 26045ft 298kts
24-Aug-18 14:45 34.531361 -119.475402 310 26043ft 298kts
24-Aug-18 14:46 34.582389 -119.536965 310 26040ft 298kts
24-Aug-18 14:47 34.641127 -119.607978 310 26043ft 297kts
24-Aug-18 14:48 34.699797 -119.679056 310 26043ft 298kts
24-Aug-18 14:49 34.758479 -119.750294 310 26027ft 298kts
24-Aug-18 14:50 34.816828 -119.821270 310 26034ft 297kts
24-Aug-18 14:51 34.875376 -119.892661 310 26033ft 297kts
24-Aug-18 14:52 34.933765 -119.964002 310 26029ft 297kts
24-Aug-18 14:53 34.991346 -120.034514 310 26030ft 297kts
24-Aug-18 14:54 35.049377 -120.105697 310 26051ft 296kts
24-Aug-18 14:55 35.107424 -120.177023 310 26015ft 294kts
24-Aug-18 14:56 35.164570 -120.247215 311 25696ft 288kts
24-Aug-18 14:57 35.227486 -120.308249 319 25396ft 288kts
24-Aug-18 14:58 35.291812 -120.366427 318 25096ft 287kts
24-Aug-18 14:59 35.355208 -120.424324 318 24798ft 286kts
24-Aug-18 15:00 35.418861 -120.482736 318 24498ft 285kts
24-Aug-18 15:01 35.482091 -120.540918 319 24199ft 284kts
24-Aug-18 15:02 35.546409 -120.599310 320 24008ft 290kts
24-Aug-18 15:03 35.611987 -120.655721 321 23992ft 290kts
24-Aug-18 15:04 35.678481 -120.712930 321 23564ft 294kts
24-Aug-18 15:05 35.743435 -120.768811 321 22628ft 279kts
24-Aug-18 15:06 35.806571 -120.823452 320 21827ft 275kts
24-Aug-18 15:07 35.869072 -120.877686 320 21027ft 273kts
24-Aug-18 15:08 35.930909 -120.931447 320 20230ft 271kts
24-Aug-18 15:09 35.992488 -120.985067 320 19430ft 270kts
24-Aug-18 15:10 36.053321 -121.038102 320 18409ft 264kts
24-Aug-18 15:11 36.112949 -121.090175 320 16653ft 261kts
24-Aug-18 15:12 36.171830 -121.141717 320 14855ft 253kts
24-Aug-18 15:13 36.227792 -121.190797 320 13025ft 241kts
24-Aug-18 15:14 36.281846 -121.239329 320 10830ft 239kts
24-Aug-18 15:15 36.334414 -121.289027 320 8633ft 236kts
24-Aug-18 15:16 36.386202 -121.340207 320 6435ft 237kts
24-Aug-18 15:17 36.430136 -121.390033 310 5843ft 208kts
24-Aug-18 15:18 36.460172 -121.450163 290 5959ft 204kts
24-Aug-18 15:19 36.476464 -121.519690 285 5662ft 218kts
24-Aug-18 15:20 36.498804 -121.588060 295 4916ft 210kts
24-Aug-18 15:21 36.523642 -121.654679 290 3819ft 216kts
24-Aug-18 15:22 36.544172 -121.719587 292 3034ft 162kts
24-Aug-18 15:23 36.558743 -121.758439 302 2301ft 101kts
24-Aug-18 15:24 36.569409 -121.791604 287 1465ft 113kts
24-Aug-18 15:25 36.581694 -121.828726 287 371ft 108kts
24-Aug-18 15:26 36.587193 -121.845841 232 209ft 6kts
24-Aug-18 15:27 36.587126 -121.845921 213 209ft 0kts
24-Aug-18 15:28 36.587151 -121.847321 292 209ft 7kts
24-Aug-18 15:29 36.587898 -121.849528 292 209ft 5kts
24-Aug-18 15:30 36.588948 -121.852696 277 209ft 10kts
24-Aug-18 15:31 36.588815 -121.853808 334 209ft 0kts
24-Aug-18 15:32 36.588815 -121.853808 334 209ft 0kts

Navigation Log

Ident Type
Flight plan parsing failed, navigation log unavailable